sensor_id;sensor_type;location;lat;lon;timestamp;temperature;humidity
8892;DHT22;4482;54.332;10.118;2022-11-23T00:01:53;2.10;99.90
8892;DHT22;4482;54.332;10.118;2022-11-23T00:04:20;2.10;99.90
8892;DHT22;4482;54.332;10.118;2022-11-23T00:06:49;2.10;99.90
8892;DHT22;4482;54.332;10.118;2022-11-23T00:09:16;2.10;99.90
8892;DHT22;4482;54.332;10.118;2022-11-23T00:11:42;2.20;99.90
8892;DHT22;4482;54.332;10.118;2022-11-23T00:14:11;2.20;99.90
8892;DHT22;4482;54.332;10.118;2022-11-23T00:16:37;2.20;99.90
8892;DHT22;4482;54.332;10.118;2022-11-23T00:19:04;2.20;99.90
8892;DHT22;4482;54.332;10.118;2022-11-23T00:21:32;2.30;99.90
8892;DHT22;4482;54.332;10.118;2022-11-23T00:23:58;2.20;99.90
8892;DHT22;4482;54.332;10.118;2022-11-23T00:26:25;2.20;99.90
8892;DHT22;4482;54.332;10.118;2022-11-23T00:28:52;2.30;99.90
8892;DHT22;4482;54.332;10.118;2022-11-23T00:31:21;2.20;99.90
8892;DHT22;4482;54.332;10.118;2022-11-23T00:33:50;2.20;99.90
8892;DHT22;4482;54.332;10.118;2022-11-23T00:36:17;2.20;99.90
8892;DHT22;4482;54.332;10.118;2022-11-23T00:38:44;2.30;99.90
8892;DHT22;4482;54.332;10.118;2022-11-23T00:41:13;2.30;99.90
8892;DHT22;4482;54.332;10.118;2022-11-23T00:43:41;2.30;99.90
8892;DHT22;4482;54.332;10.118;2022-11-23T00:46:11;2.30;99.90
8892;DHT22;4482;54.332;10.118;2022-11-23T00:48:39;2.30;99.90
8892;DHT22;4482;54.332;10.118;2022-11-23T00:51:08;2.30;99.90
8892;DHT22;4482;54.332;10.118;2022-11-23T00:53:35;2.30;99.90
8892;DHT22;4482;54.332;10.118;2022-11-23T00:56:03;2.30;99.90
8892;DHT22;4482;54.332;10.118;2022-11-23T00:58:31;2.30;99.90
8892;DHT22;4482;54.332;10.118;2022-11-23T01:01:02;2.30;99.90
8892;DHT22;4482;54.332;10.118;2022-11-23T01:03:30;2.30;99.90
8892;DHT22;4482;54.332;10.118;2022-11-23T01:06:06;2.30;99.90
8892;DHT22;4482;54.332;10.118;2022-11-23T01:08:33;2.30;99.90
8892;DHT22;4482;54.332;10.118;2022-11-23T01:11:02;2.40;99.90
8892;DHT22;4482;54.332;10.118;2022-11-23T01:13:29;2.40;99.90
8892;DHT22;4482;54.332;10.118;2022-11-23T01:15:56;2.40;99.90
8892;DHT22;4482;54.332;10.118;2022-11-23T01:18:24;2.40;99.90
8892;DHT22;4482;54.332;10.118;2022-11-23T01:20:50;2.40;99.90
8892;DHT22;4482;54.332;10.118;2022-11-23T01:23:19;2.40;99.90
8892;DHT22;4482;54.332;10.118;2022-11-23T01:25:46;2.30;99.90
8892;DHT22;4482;54.332;10.118;2022-11-23T01:28:13;2.30;99.90
8892;DHT22;4482;54.332;10.118;2022-11-23T01:30:40;2.30;99.90
8892;DHT22;4482;54.332;10.118;2022-11-23T01:33:07;2.30;99.90
8892;DHT22;4482;54.332;10.118;2022-11-23T01:35:34;2.40;99.90
8892;DHT22;4482;54.332;10.118;2022-11-23T01:38:01;2.40;99.90
8892;DHT22;4482;54.332;10.118;2022-11-23T01:40:29;2.40;99.90
8892;DHT22;4482;54.332;10.118;2022-11-23T01:42:58;2.40;99.90
8892;DHT22;4482;54.332;10.118;2022-11-23T01:45:35;2.40;99.90
8892;DHT22;4482;54.332;10.118;2022-11-23T01:48:06;2.50;99.90
8892;DHT22;4482;54.332;10.118;2022-11-23T01:50:36;2.50;99.90
8892;DHT22;4482;54.332;10.118;2022-11-23T01:53:04;2.50;99.90
8892;DHT22;4482;54.332;10.118;2022-11-23T01:55:32;2.50;99.90
8892;DHT22;4482;54.332;10.118;2022-11-23T01:58:01;2.50;99.90
8892;DHT22;4482;54.332;10.118;2022-11-23T02:00:28;2.50;99.90
8892;DHT22;4482;54.332;10.118;2022-11-23T02:02:57;2.60;99.90
8892;DHT22;4482;54.332;10.118;2022-11-23T02:05:31;2.60;99.90
8892;DHT22;4482;54.332;10.118;2022-11-23T02:08:00;2.60;99.90
8892;DHT22;4482;54.332;10.118;2022-11-23T02:10:29;2.60;99.90
8892;DHT22;4482;54.332;10.118;2022-11-23T02:13:02;2.60;99.90
8892;DHT22;4482;54.332;10.118;2022-11-23T02:15:30;2.60;99.90
8892;DHT22;4482;54.332;10.118;2022-11-23T02:17:58;2.60;99.90
8892;DHT22;4482;54.332;10.118;2022-11-23T02:20:26;2.70;99.90
8892;DHT22;4482;54.332;10.118;2022-11-23T02:23:03;2.70;99.90
8892;DHT22;4482;54.332;10.118;2022-11-23T02:25:39;2.70;99.90
8892;DHT22;4482;54.332;10.118;2022-11-23T02:28:12;2.70;99.90
8892;DHT22;4482;54.332;10.118;2022-11-23T02:30:39;2.70;99.90
8892;DHT22;4482;54.332;10.118;2022-11-23T02:33:07;2.70;99.90
8892;DHT22;4482;54.332;10.118;2022-11-23T02:35:34;2.80;99.90
8892;DHT22;4482;54.332;10.118;2022-11-23T02:38:01;2.80;99.90
8892;DHT22;4482;54.332;10.118;2022-11-23T02:40:33;2.80;99.90
8892;DHT22;4482;54.332;10.118;2022-11-23T02:43:01;2.80;99.90
8892;DHT22;4482;54.332;10.118;2022-11-23T02:45:35;2.80;99.90
8892;DHT22;4482;54.332;10.118;2022-11-23T02:48:02;2.80;99.90
8892;DHT22;4482;54.332;10.118;2022-11-23T02:50:30;2.90;99.90
8892;DHT22;4482;54.332;10.118;2022-11-23T02:52:57;2.80;99.90
8892;DHT22;4482;54.332;10.118;2022-11-23T02:55:24;2.90;99.90
8892;DHT22;4482;54.332;10.118;2022-11-23T02:57:50;2.90;99.90
8892;DHT22;4482;54.332;10.118;2022-11-23T03:00:17;2.90;99.90
8892;DHT22;4482;54.332;10.118;2022-11-23T03:02:45;2.90;99.90
8892;DHT22;4482;54.332;10.118;2022-11-23T03:05:13;2.90;99.90
8892;DHT22;4482;54.332;10.118;2022-11-23T03:07:40;2.90;99.90
8892;DHT22;4482;54.332;10.118;2022-11-23T03:10:08;2.90;99.90
8892;DHT22;4482;54.332;10.118;2022-11-23T03:12:35;2.90;99.90
8892;DHT22;4482;54.332;10.118;2022-11-23T03:15:01;2.80;99.90
8892;DHT22;4482;54.332;10.118;2022-11-23T03:17:29;2.80;99.90
8892;DHT22;4482;54.332;10.118;2022-11-23T03:19:58;2.80;99.90
8892;DHT22;4482;54.332;10.118;2022-11-23T03:22:25;2.80;99.90
8892;DHT22;4482;54.332;10.118;2022-11-23T03:24:52;2.90;99.90
8892;DHT22;4482;54.332;10.118;2022-11-23T03:27:19;2.80;99.90
8892;DHT22;4482;54.332;10.118;2022-11-23T03:29:46;2.90;99.90
8892;DHT22;4482;54.332;10.118;2022-11-23T03:32:12;2.90;99.90
8892;DHT22;4482;54.332;10.118;2022-11-23T03:34:39;2.90;99.90
8892;DHT22;4482;54.332;10.118;2022-11-23T03:37:07;2.90;99.90
8892;DHT22;4482;54.332;10.118;2022-11-23T03:39:34;2.90;99.90
8892;DHT22;4482;54.332;10.118;2022-11-23T03:42:01;2.90;99.90
8892;DHT22;4482;54.332;10.118;2022-11-23T03:44:28;2.90;99.90
8892;DHT22;4482;54.332;10.118;2022-11-23T03:46:55;2.90;99.90
8892;DHT22;4482;54.332;10.118;2022-11-23T03:49:21;2.90;99.90
8892;DHT22;4482;54.332;10.118;2022-11-23T03:51:48;3.00;99.90
8892;DHT22;4482;54.332;10.118;2022-11-23T03:54:16;3.00;99.90
8892;DHT22;4482;54.332;10.118;2022-11-23T03:56:43;3.00;99.90
8892;DHT22;4482;54.332;10.118;2022-11-23T03:59:10;2.90;99.90
8892;DHT22;4482;54.332;10.118;2022-11-23T04:01:37;3.00;99.90
8892;DHT22;4482;54.332;10.118;2022-11-23T04:04:04;3.00;99.90
8892;DHT22;4482;54.332;10.118;2022-11-23T04:06:30;3.00;99.90
8892;DHT22;4482;54.332;10.118;2022-11-23T04:08:57;3.00;99.90
8892;DHT22;4482;54.332;10.118;2022-11-23T04:11:25;3.00;99.90
8892;DHT22;4482;54.332;10.118;2022-11-23T04:13:52;2.90;99.90
8892;DHT22;4482;54.332;10.118;2022-11-23T04:16:19;3.00;99.90
8892;DHT22;4482;54.332;10.118;2022-11-23T04:18:46;3.00;99.90
8892;DHT22;4482;54.332;10.118;2022-11-23T04:21:13;3.00;99.90
8892;DHT22;4482;54.332;10.118;2022-11-23T04:23:39;3.00;99.90
8892;DHT22;4482;54.332;10.118;2022-11-23T04:26:06;3.00;99.90
8892;DHT22;4482;54.332;10.118;2022-11-23T04:28:34;2.90;99.90
8892;DHT22;4482;54.332;10.118;2022-11-23T04:31:01;3.00;99.90
8892;DHT22;4482;54.332;10.118;2022-11-23T04:33:28;3.00;99.90
8892;DHT22;4482;54.332;10.118;2022-11-23T04:35:56;3.00;99.90
8892;DHT22;4482;54.332;10.118;2022-11-23T04:38:22;3.00;99.90
8892;DHT22;4482;54.332;10.118;2022-11-23T04:40:49;3.00;99.90
8892;DHT22;4482;54.332;10.118;2022-11-23T04:43:16;3.00;99.90
8892;DHT22;4482;54.332;10.118;2022-11-23T04:45:44;3.00;99.90
8892;DHT22;4482;54.332;10.118;2022-11-23T04:48:11;3.00;99.90
8892;DHT22;4482;54.332;10.118;2022-11-23T04:50:38;3.00;99.90
8892;DHT22;4482;54.332;10.118;2022-11-23T04:53:06;3.10;99.90
8892;DHT22;4482;54.332;10.118;2022-11-23T04:55:33;3.10;99.90
8892;DHT22;4482;54.332;10.118;2022-11-23T04:58:00;3.00;99.90
8892;DHT22;4482;54.332;10.118;2022-11-23T05:00:27;3.10;99.90
8892;DHT22;4482;54.332;10.118;2022-11-23T05:02:58;3.10;99.90
8892;DHT22;4482;54.332;10.118;2022-11-23T05:05:25;3.10;99.90
8892;DHT22;4482;54.332;10.118;2022-11-23T05:07:52;3.10;99.90
8892;DHT22;4482;54.332;10.118;2022-11-23T05:10:18;3.10;99.90
8892;DHT22;4482;54.332;10.118;2022-11-23T05:12:45;3.20;99.90
8892;DHT22;4482;54.332;10.118;2022-11-23T05:15:12;3.30;99.90
8892;DHT22;4482;54.332;10.118;2022-11-23T05:17:39;3.30;99.90
8892;DHT22;4482;54.332;10.118;2022-11-23T05:20:09;3.30;99.90
8892;DHT22;4482;54.332;10.118;2022-11-23T05:22:36;3.30;99.90
8892;DHT22;4482;54.332;10.118;2022-11-23T05:25:03;3.40;99.90
8892;DHT22;4482;54.332;10.118;2022-11-23T05:27:30;3.40;99.90
8892;DHT22;4482;54.332;10.118;2022-11-23T05:29:57;3.50;99.90
8892;DHT22;4482;54.332;10.118;2022-11-23T05:32:24;3.60;99.90
8892;DHT22;4482;54.332;10.118;2022-11-23T05:34:50;3.60;99.90
8892;DHT22;4482;54.332;10.118;2022-11-23T05:37:19;3.60;99.90
8892;DHT22;4482;54.332;10.118;2022-11-23T05:39:45;3.60;99.90
8892;DHT22;4482;54.332;10.118;2022-11-23T05:42:12;3.60;99.90
8892;DHT22;4482;54.332;10.118;2022-11-23T05:44:39;3.60;99.90
8892;DHT22;4482;54.332;10.118;2022-11-23T05:47:06;3.60;99.90
8892;DHT22;4482;54.332;10.118;2022-11-23T05:49:32;3.60;99.90
8892;DHT22;4482;54.332;10.118;2022-11-23T05:51:59;3.60;99.90
8892;DHT22;4482;54.332;10.118;2022-11-23T05:54:27;3.60;99.90
8892;DHT22;4482;54.332;10.118;2022-11-23T05:56:54;3.60;99.90
8892;DHT22;4482;54.332;10.118;2022-11-23T05:59:21;3.70;99.90
8892;DHT22;4482;54.332;10.118;2022-11-23T06:01:48;3.70;99.90
8892;DHT22;4482;54.332;10.118;2022-11-23T06:04:15;3.70;99.90
8892;DHT22;4482;54.332;10.118;2022-11-23T06:06:41;3.80;99.90
8892;DHT22;4482;54.332;10.118;2022-11-23T06:09:08;3.80;99.90
8892;DHT22;4482;54.332;10.118;2022-11-23T06:11:37;3.80;99.90
8892;DHT22;4482;54.332;10.118;2022-11-23T06:14:03;3.70;99.90
8892;DHT22;4482;54.332;10.118;2022-11-23T06:16:31;3.70;99.90
8892;DHT22;4482;54.332;10.118;2022-11-23T06:18:57;3.70;99.90
8892;DHT22;4482;54.332;10.118;2022-11-23T06:21:24;3.70;99.90
8892;DHT22;4482;54.332;10.118;2022-11-23T06:23:51;3.70;99.90
8892;DHT22;4482;54.332;10.118;2022-11-23T06:26:18;3.80;99.90
8892;DHT22;4482;54.332;10.118;2022-11-23T06:28:46;3.80;99.90
8892;DHT22;4482;54.332;10.118;2022-11-23T06:31:13;3.80;99.90
8892;DHT22;4482;54.332;10.118;2022-11-23T06:33:40;3.80;99.90
8892;DHT22;4482;54.332;10.118;2022-11-23T06:36:09;3.80;99.90
8892;DHT22;4482;54.332;10.118;2022-11-23T06:38:37;3.80;99.90
8892;DHT22;4482;54.332;10.118;2022-11-23T06:41:04;3.80;99.90
8892;DHT22;4482;54.332;10.118;2022-11-23T06:43:31;3.80;99.90
8892;DHT22;4482;54.332;10.118;2022-11-23T06:46:02;3.80;99.90
8892;DHT22;4482;54.332;10.118;2022-11-23T06:48:29;3.90;99.90
8892;DHT22;4482;54.332;10.118;2022-11-23T06:50:57;4.00;99.90
8892;DHT22;4482;54.332;10.118;2022-11-23T06:53:24;3.90;99.90
8892;DHT22;4482;54.332;10.118;2022-11-23T06:55:51;3.80;99.90
8892;DHT22;4482;54.332;10.118;2022-11-23T06:58:18;3.80;99.90
8892;DHT22;4482;54.332;10.118;2022-11-23T07:00:45;3.80;99.90
8892;DHT22;4482;54.332;10.118;2022-11-23T07:03:17;3.80;99.90
8892;DHT22;4482;54.332;10.118;2022-11-23T07:05:45;3.80;99.90
8892;DHT22;4482;54.332;10.118;2022-11-23T07:08:12;3.90;99.90
8892;DHT22;4482;54.332;10.118;2022-11-23T07:10:38;3.90;99.90
8892;DHT22;4482;54.332;10.118;2022-11-23T07:13:07;3.90;99.90
8892;DHT22;4482;54.332;10.118;2022-11-23T07:15:35;3.90;99.90
8892;DHT22;4482;54.332;10.118;2022-11-23T07:18:02;3.90;99.90
8892;DHT22;4482;54.332;10.118;2022-11-23T07:20:31;3.90;99.90
8892;DHT22;4482;54.332;10.118;2022-11-23T07:22:58;3.90;99.90
8892;DHT22;4482;54.332;10.118;2022-11-23T07:25:26;4.00;99.90
8892;DHT22;4482;54.332;10.118;2022-11-23T07:27:54;4.00;99.90
8892;DHT22;4482;54.332;10.118;2022-11-23T07:30:21;4.00;99.90
8892;DHT22;4482;54.332;10.118;2022-11-23T07:32:48;4.00;99.90
8892;DHT22;4482;54.332;10.118;2022-11-23T07:35:15;4.00;99.90
8892;DHT22;4482;54.332;10.118;2022-11-23T07:37:44;4.00;99.90
8892;DHT22;4482;54.332;10.118;2022-11-23T07:40:11;4.10;99.90
8892;DHT22;4482;54.332;10.118;2022-11-23T07:42:38;4.10;99.90
8892;DHT22;4482;54.332;10.118;2022-11-23T07:45:06;4.10;99.90
8892;DHT22;4482;54.332;10.118;2022-11-23T07:47:33;4.10;99.90
8892;DHT22;4482;54.332;10.118;2022-11-23T07:50:00;4.20;99.90
8892;DHT22;4482;54.332;10.118;2022-11-23T07:52:27;4.20;99.90
8892;DHT22;4482;54.332;10.118;2022-11-23T07:54:55;4.20;99.90
8892;DHT22;4482;54.332;10.118;2022-11-23T07:57:22;4.20;99.90
8892;DHT22;4482;54.332;10.118;2022-11-23T07:59:49;4.20;99.90
8892;DHT22;4482;54.332;10.118;2022-11-23T08:02:16;4.20;99.90
8892;DHT22;4482;54.332;10.118;2022-11-23T08:04:43;4.20;99.90
8892;DHT22;4482;54.332;10.118;2022-11-23T08:07:10;4.20;99.90
8892;DHT22;4482;54.332;10.118;2022-11-23T08:09:36;4.20;99.90
8892;DHT22;4482;54.332;10.118;2022-11-23T08:12:05;4.40;99.90
8892;DHT22;4482;54.332;10.118;2022-11-23T08:14:32;4.40;99.90
8892;DHT22;4482;54.332;10.118;2022-11-23T08:16:59;4.30;99.90
8892;DHT22;4482;54.332;10.118;2022-11-23T08:19:26;4.40;99.90
8892;DHT22;4482;54.332;10.118;2022-11-23T08:21:52;4.40;99.90
8892;DHT22;4482;54.332;10.118;2022-11-23T08:24:19;4.40;99.90
8892;DHT22;4482;54.332;10.118;2022-11-23T08:26:46;4.40;99.90
8892;DHT22;4482;54.332;10.118;2022-11-23T08:29:15;4.50;99.90
8892;DHT22;4482;54.332;10.118;2022-11-23T08:31:42;4.50;99.90
8892;DHT22;4482;54.332;10.118;2022-11-23T08:34:09;4.60;99.90
8892;DHT22;4482;54.332;10.118;2022-11-23T08:36:36;4.60;99.90
8892;DHT22;4482;54.332;10.118;2022-11-23T08:39:03;4.60;99.90
8892;DHT22;4482;54.332;10.118;2022-11-23T08:41:30;4.60;99.90
8892;DHT22;4482;54.332;10.118;2022-11-23T08:43:56;4.70;99.90
8892;DHT22;4482;54.332;10.118;2022-11-23T08:46:24;4.70;99.90
8892;DHT22;4482;54.332;10.118;2022-11-23T08:48:51;4.70;99.90
8892;DHT22;4482;54.332;10.118;2022-11-23T08:51:18;4.80;99.90
8892;DHT22;4482;54.332;10.118;2022-11-23T08:53:47;4.80;99.90
8892;DHT22;4482;54.332;10.118;2022-11-23T08:56:14;4.80;99.90
8892;DHT22;4482;54.332;10.118;2022-11-23T08:58:41;4.80;99.90
8892;DHT22;4482;54.332;10.118;2022-11-23T09:01:09;4.80;99.90
8892;DHT22;4482;54.332;10.118;2022-11-23T09:03:37;4.80;99.90
8892;DHT22;4482;54.332;10.118;2022-11-23T09:06:04;4.90;99.90
8892;DHT22;4482;54.332;10.118;2022-11-23T09:08:31;4.90;99.90
8892;DHT22;4482;54.332;10.118;2022-11-23T09:10:59;5.00;99.90
8892;DHT22;4482;54.332;10.118;2022-11-23T09:13:26;5.00;99.90
8892;DHT22;4482;54.332;10.118;2022-11-23T09:15:56;5.10;99.90
8892;DHT22;4482;54.332;10.118;2022-11-23T09:18:23;5.10;99.90
8892;DHT22;4482;54.332;10.118;2022-11-23T09:20:51;5.10;99.90
8892;DHT22;4482;54.332;10.118;2022-11-23T09:23:18;5.10;99.90
8892;DHT22;4482;54.332;10.118;2022-11-23T09:25:45;5.10;99.90
8892;DHT22;4482;54.332;10.118;2022-11-23T09:28:14;5.10;99.90
8892;DHT22;4482;54.332;10.118;2022-11-23T09:30:44;5.10;99.90
8892;DHT22;4482;54.332;10.118;2022-11-23T09:33:11;5.20;99.90
8892;DHT22;4482;54.332;10.118;2022-11-23T09:35:38;5.20;99.90
8892;DHT22;4482;54.332;10.118;2022-11-23T09:38:06;5.30;99.90
8892;DHT22;4482;54.332;10.118;2022-11-23T09:40:36;5.30;99.90
8892;DHT22;4482;54.332;10.118;2022-11-23T09:43:16;5.40;99.90
8892;DHT22;4482;54.332;10.118;2022-11-23T09:45:50;5.40;99.90
8892;DHT22;4482;54.332;10.118;2022-11-23T09:48:42;5.50;99.90
8892;DHT22;4482;54.332;10.118;2022-11-23T09:51:15;5.50;99.90
8892;DHT22;4482;54.332;10.118;2022-11-23T09:53:49;5.60;99.90
8892;DHT22;4482;54.332;10.118;2022-11-23T09:56:19;5.80;99.90
8892;DHT22;4482;54.332;10.118;2022-11-23T09:58:48;5.90;99.90
8892;DHT22;4482;54.332;10.118;2022-11-23T10:01:16;6.00;99.90
8892;DHT22;4482;54.332;10.118;2022-11-23T10:03:44;6.10;99.90
8892;DHT22;4482;54.332;10.118;2022-11-23T10:06:18;6.10;99.90
8892;DHT22;4482;54.332;10.118;2022-11-23T10:09:14;6.20;99.90
8892;DHT22;4482;54.332;10.118;2022-11-23T10:11:59;6.30;99.90
8892;DHT22;4482;54.332;10.118;2022-11-23T10:14:43;6.40;99.90
8892;DHT22;4482;54.332;10.118;2022-11-23T10:17:21;6.20;99.90
8892;DHT22;4482;54.332;10.118;2022-11-23T10:20:03;6.10;99.90
8892;DHT22;4482;54.332;10.118;2022-11-23T10:22:39;6.10;99.90
8892;DHT22;4482;54.332;10.118;2022-11-23T10:25:14;6.10;99.90
8892;DHT22;4482;54.332;10.118;2022-11-23T10:27:44;6.20;99.90
8892;DHT22;4482;54.332;10.118;2022-11-23T10:30:13;6.20;99.90
8892;DHT22;4482;54.332;10.118;2022-11-23T10:32:45;6.30;99.90
8892;DHT22;4482;54.332;10.118;2022-11-23T10:35:14;6.40;99.90
8892;DHT22;4482;54.332;10.118;2022-11-23T10:37:42;6.40;99.90
8892;DHT22;4482;54.332;10.118;2022-11-23T10:40:15;6.40;99.90
8892;DHT22;4482;54.332;10.118;2022-11-23T10:42:45;6.50;99.90
8892;DHT22;4482;54.332;10.118;2022-11-23T10:45:19;6.50;99.90
8892;DHT22;4482;54.332;10.118;2022-11-23T10:47:50;6.50;99.90
8892;DHT22;4482;54.332;10.118;2022-11-23T10:50:23;6.50;99.90
8892;DHT22;4482;54.332;10.118;2022-11-23T10:52:53;6.60;99.90
8892;DHT22;4482;54.332;10.118;2022-11-23T10:55:25;6.60;99.90
8892;DHT22;4482;54.332;10.118;2022-11-23T10:57:53;6.60;99.90
8892;DHT22;4482;54.332;10.118;2022-11-23T11:00:21;6.60;99.90
8892;DHT22;4482;54.332;10.118;2022-11-23T11:02:49;6.70;99.90
8892;DHT22;4482;54.332;10.118;2022-11-23T11:05:26;6.70;99.90
8892;DHT22;4482;54.332;10.118;2022-11-23T11:07:55;6.70;99.90
8892;DHT22;4482;54.332;10.118;2022-11-23T11:10:37;6.70;99.90
8892;DHT22;4482;54.332;10.118;2022-11-23T11:13:23;6.70;99.90
8892;DHT22;4482;54.332;10.118;2022-11-23T11:15:52;6.70;99.90
8892;DHT22;4482;54.332;10.118;2022-11-23T11:18:19;6.70;99.90
8892;DHT22;4482;54.332;10.118;2022-11-23T11:20:48;6.80;99.90
8892;DHT22;4482;54.332;10.118;2022-11-23T11:23:21;6.80;99.90
8892;DHT22;4482;54.332;10.118;2022-11-23T11:25:51;6.80;99.90
8892;DHT22;4482;54.332;10.118;2022-11-23T11:28:33;6.90;99.90
8892;DHT22;4482;54.332;10.118;2022-11-23T11:33:57;6.90;99.90
8892;DHT22;4482;54.332;10.118;2022-11-23T11:36:33;6.90;99.90
8892;DHT22;4482;54.332;10.118;2022-11-23T11:39:06;6.90;99.90
8892;DHT22;4482;54.332;10.118;2022-11-23T11:41:41;7.00;99.90
8892;DHT22;4482;54.332;10.118;2022-11-23T11:44:12;7.00;99.90
8892;DHT22;4482;54.332;10.118;2022-11-23T11:46:45;7.10;99.90
8892;DHT22;4482;54.332;10.118;2022-11-23T11:49:16;7.10;99.90
8892;DHT22;4482;54.332;10.118;2022-11-23T11:51:47;7.10;99.90
8892;DHT22;4482;54.332;10.118;2022-11-23T11:54:20;7.10;99.90
8892;DHT22;4482;54.332;10.118;2022-11-23T11:56:51;7.20;99.90
8892;DHT22;4482;54.332;10.118;2022-11-23T11:59:25;7.20;99.90
8892;DHT22;4482;54.332;10.118;2022-11-23T12:01:56;7.10;99.90
8892;DHT22;4482;54.332;10.118;2022-11-23T12:04:30;7.20;99.90
8892;DHT22;4482;54.332;10.118;2022-11-23T12:07:05;7.10;99.90
8892;DHT22;4482;54.332;10.118;2022-11-23T12:09:37;7.20;99.90
8892;DHT22;4482;54.332;10.118;2022-11-23T12:12:13;7.20;99.90
8892;DHT22;4482;54.332;10.118;2022-11-23T12:14:41;7.10;99.90
8892;DHT22;4482;54.332;10.118;2022-11-23T12:17:25;7.10;99.90
8892;DHT22;4482;54.332;10.118;2022-11-23T12:19:59;7.10;99.90
8892;DHT22;4482;54.332;10.118;2022-11-23T12:22:38;7.10;99.90
8892;DHT22;4482;54.332;10.118;2022-11-23T12:25:15;7.20;99.90
8892;DHT22;4482;54.332;10.118;2022-11-23T12:27:58;7.20;99.90
8892;DHT22;4482;54.332;10.118;2022-11-23T12:30:30;7.10;99.90
8892;DHT22;4482;54.332;10.118;2022-11-23T12:33:20;7.00;99.90
8892;DHT22;4482;54.332;10.118;2022-11-23T12:36:12;7.00;99.90
8892;DHT22;4482;54.332;10.118;2022-11-23T12:38:52;6.80;99.90
8892;DHT22;4482;54.332;10.118;2022-11-23T12:41:23;6.70;99.90
8892;DHT22;4482;54.332;10.118;2022-11-23T12:47:12;6.60;99.90
8892;DHT22;4482;54.332;10.118;2022-11-23T12:49:44;6.60;99.90
8892;DHT22;4482;54.332;10.118;2022-11-23T12:52:42;6.60;99.90
8892;DHT22;4482;54.332;10.118;2022-11-23T12:55:18;6.60;99.90
8892;DHT22;4482;54.332;10.118;2022-11-23T12:57:53;6.60;99.90
8892;DHT22;4482;54.332;10.118;2022-11-23T13:00:26;6.60;99.90
8892;DHT22;4482;54.332;10.118;2022-11-23T13:06:29;6.70;99.90
8892;DHT22;4482;54.332;10.118;2022-11-23T13:09:16;6.60;99.90
8892;DHT22;4482;54.332;10.118;2022-11-23T13:12:04;6.70;99.90
8892;DHT22;4482;54.332;10.118;2022-11-23T13:14:39;6.70;99.90
8892;DHT22;4482;54.332;10.118;2022-11-23T13:17:26;6.70;99.90
8892;DHT22;4482;54.332;10.118;2022-11-23T13:20:11;6.80;99.90
8892;DHT22;4482;54.332;10.118;2022-11-23T13:22:41;6.80;99.90
8892;DHT22;4482;54.332;10.118;2022-11-23T13:25:20;6.80;99.90
8892;DHT22;4482;54.332;10.118;2022-11-23T13:27:56;6.80;99.90
8892;DHT22;4482;54.332;10.118;2022-11-23T13:30:28;6.80;99.90
8892;DHT22;4482;54.332;10.118;2022-11-23T13:32:59;6.70;99.90
8892;DHT22;4482;54.332;10.118;2022-11-23T13:35:50;6.70;99.90
8892;DHT22;4482;54.332;10.118;2022-11-23T13:38:42;6.80;99.90
8892;DHT22;4482;54.332;10.118;2022-11-23T13:44:27;6.80;99.90
8892;DHT22;4482;54.332;10.118;2022-11-23T13:47:03;6.80;99.90
8892;DHT22;4482;54.332;10.118;2022-11-23T13:49:39;6.70;99.90
8892;DHT22;4482;54.332;10.118;2022-11-23T13:52:23;6.70;99.90
8892;DHT22;4482;54.332;10.118;2022-11-23T13:54:55;6.70;99.90
8892;DHT22;4482;54.332;10.118;2022-11-23T13:57:24;6.70;99.90
8892;DHT22;4482;54.332;10.118;2022-11-23T13:59:51;6.60;99.90
8892;DHT22;4482;54.332;10.118;2022-11-23T14:02:27;6.60;99.90
8892;DHT22;4482;54.332;10.118;2022-11-23T14:07:55;6.60;99.90
8892;DHT22;4482;54.332;10.118;2022-11-23T14:10:23;6.60;99.90
8892;DHT22;4482;54.332;10.118;2022-11-23T14:12:54;6.60;99.90
8892;DHT22;4482;54.332;10.118;2022-11-23T14:15:24;6.60;99.90
8892;DHT22;4482;54.332;10.118;2022-11-23T14:18:17;6.60;99.90
8892;DHT22;4482;54.332;10.118;2022-11-23T14:20:56;6.60;99.90
8892;DHT22;4482;54.332;10.118;2022-11-23T14:26:40;6.60;99.90
8892;DHT22;4482;54.332;10.118;2022-11-23T14:29:50;6.60;99.90
8892;DHT22;4482;54.332;10.118;2022-11-23T14:32:30;6.50;99.90
8892;DHT22;4482;54.332;10.118;2022-11-23T14:35:11;6.60;99.90
8892;DHT22;4482;54.332;10.118;2022-11-23T14:37:53;6.60;99.90
8892;DHT22;4482;54.332;10.118;2022-11-23T14:40:26;6.50;99.90
8892;DHT22;4482;54.332;10.118;2022-11-23T14:42:56;6.60;99.90
8892;DHT22;4482;54.332;10.118;2022-11-23T14:45:27;6.60;99.90
8892;DHT22;4482;54.332;10.118;2022-11-23T14:47:55;6.60;99.90
8892;DHT22;4482;54.332;10.118;2022-11-23T14:50:24;6.60;99.90
8892;DHT22;4482;54.332;10.118;2022-11-23T14:52:52;6.60;99.90
8892;DHT22;4482;54.332;10.118;2022-11-23T14:55:22;6.60;99.90
8892;DHT22;4482;54.332;10.118;2022-11-23T14:57:53;6.60;99.90
8892;DHT22;4482;54.332;10.118;2022-11-23T15:00:30;6.60;99.90
8892;DHT22;4482;54.332;10.118;2022-11-23T15:03:08;6.70;99.90
8892;DHT22;4482;54.332;10.118;2022-11-23T15:05:42;6.60;99.90
8892;DHT22;4482;54.332;10.118;2022-11-23T15:08:13;6.60;99.90
8892;DHT22;4482;54.332;10.118;2022-11-23T15:10:47;6.60;99.90
8892;DHT22;4482;54.332;10.118;2022-11-23T15:13:20;6.60;99.90
8892;DHT22;4482;54.332;10.118;2022-11-23T15:15:50;6.60;99.90
8892;DHT22;4482;54.332;10.118;2022-11-23T15:18:31;6.50;99.90
8892;DHT22;4482;54.332;10.118;2022-11-23T15:21:01;6.50;99.90
8892;DHT22;4482;54.332;10.118;2022-11-23T15:23:33;6.50;99.90
8892;DHT22;4482;54.332;10.118;2022-11-23T15:26:04;6.50;99.90
8892;DHT22;4482;54.332;10.118;2022-11-23T15:28:34;6.60;99.90
8892;DHT22;4482;54.332;10.118;2022-11-23T15:31:17;6.50;99.90
8892;DHT22;4482;54.332;10.118;2022-11-23T15:33:46;6.50;99.90
8892;DHT22;4482;54.332;10.118;2022-11-23T15:36:17;6.50;99.90
8892;DHT22;4482;54.332;10.118;2022-11-23T15:38:47;6.50;99.90
8892;DHT22;4482;54.332;10.118;2022-11-23T15:41:14;6.50;99.90
8892;DHT22;4482;54.332;10.118;2022-11-23T15:43:51;6.40;99.90
8892;DHT22;4482;54.332;10.118;2022-11-23T15:46:20;6.40;99.90
8892;DHT22;4482;54.332;10.118;2022-11-23T15:48:51;6.40;99.90
8892;DHT22;4482;54.332;10.118;2022-11-23T15:51:24;6.40;99.90
8892;DHT22;4482;54.332;10.118;2022-11-23T15:53:52;6.50;99.90
8892;DHT22;4482;54.332;10.118;2022-11-23T15:56:22;6.40;99.90
8892;DHT22;4482;54.332;10.118;2022-11-23T15:58:50;6.40;99.90
8892;DHT22;4482;54.332;10.118;2022-11-23T16:01:20;6.30;99.90
8892;DHT22;4482;54.332;10.118;2022-11-23T16:03:49;6.40;99.90
8892;DHT22;4482;54.332;10.118;2022-11-23T16:06:32;6.40;99.90
8892;DHT22;4482;54.332;10.118;2022-11-23T16:09:01;6.40;99.90
8892;DHT22;4482;54.332;10.118;2022-11-23T16:11:31;6.40;99.90
8892;DHT22;4482;54.332;10.118;2022-11-23T16:14:13;6.40;99.90
8892;DHT22;4482;54.332;10.118;2022-11-23T16:16:43;6.40;99.90
8892;DHT22;4482;54.332;10.118;2022-11-23T16:19:26;6.40;99.90
8892;DHT22;4482;54.332;10.118;2022-11-23T16:21:55;6.30;99.90
8892;DHT22;4482;54.332;10.118;2022-11-23T16:24:24;6.30;99.90
8892;DHT22;4482;54.332;10.118;2022-11-23T16:26:52;6.30;99.90
8892;DHT22;4482;54.332;10.118;2022-11-23T16:29:21;6.30;99.90
8892;DHT22;4482;54.332;10.118;2022-11-23T16:31:58;6.40;99.90
8892;DHT22;4482;54.332;10.118;2022-11-23T16:34:26;6.30;99.90
8892;DHT22;4482;54.332;10.118;2022-11-23T16:36:53;6.30;99.90
8892;DHT22;4482;54.332;10.118;2022-11-23T16:39:21;6.30;99.90
8892;DHT22;4482;54.332;10.118;2022-11-23T16:41:48;6.30;99.90